sensor_id;sensor_type;location;lat;lon;timestamp;pressure;altitude;pressure_sealevel;temperature;humidity
59009;BME280;44794;42.652;23.318;2023-05-25T00:00:08;94410.41;;;14.30;100.00
59009;BME280;44794;42.652;23.318;2023-05-25T00:02:35;94415.34;;;14.33;100.00
59009;BME280;44794;42.652;23.318;2023-05-25T00:05:00;94415.63;;;14.30;100.00
59009;BME280;44794;42.652;23.318;2023-05-25T00:07:26;94420.44;;;14.26;100.00
59009;BME280;44794;42.652;23.318;2023-05-25T00:09:52;94410.03;;;14.16;100.00
59009;BME280;44794;42.652;23.318;2023-05-25T00:12:17;94423.88;;;14.17;100.00
59009;BME280;44794;42.652;23.318;2023-05-25T00:14:43;94419.06;;;14.12;100.00
59009;BME280;44794;42.652;23.318;2023-05-25T00:17:08;94417.94;;;14.05;100.00
59009;BME280;44794;42.652;23.318;2023-05-25T00:19:35;94416.59;;;14.01;100.00
59009;BME280;44794;42.652;23.318;2023-05-25T00:22:01;94419.44;;;13.98;100.00
59009;BME280;44794;42.652;23.318;2023-05-25T00:24:28;94423.56;;;13.91;100.00
59009;BME280;44794;42.652;23.318;2023-05-25T00:26:55;94412.72;;;13.77;100.00
59009;BME280;44794;42.652;23.318;2023-05-25T00:29:21;94410.13;;;13.86;100.00
59009;BME280;44794;42.652;23.318;2023-05-25T00:31:46;94417.13;;;13.86;100.00
59009;BME280;44794;42.652;23.318;2023-05-25T00:34:11;94408.47;;;13.85;100.00
59009;BME280;44794;42.652;23.318;2023-05-25T00:36:37;94413.13;;;13.82;100.00
59009;BME280;44794;42.652;23.318;2023-05-25T00:39:02;94408.72;;;13.73;100.00
59009;BME280;44794;42.652;23.318;2023-05-25T00:41:29;94412.56;;;13.69;100.00
59009;BME280;44794;42.652;23.318;2023-05-25T00:43:56;94409.66;;;13.62;100.00
59009;BME280;44794;42.652;23.318;2023-05-25T00:46:22;94412.72;;;13.58;100.00
59009;BME280;44794;42.652;23.318;2023-05-25T00:48:51;94417.22;;;13.56;100.00
59009;BME280;44794;42.652;23.318;2023-05-25T00:51:18;94417.78;;;13.50;100.00
59009;BME280;44794;42.652;23.318;2023-05-25T00:53:44;94408.28;;;13.49;100.00
59009;BME280;44794;42.652;23.318;2023-05-25T00:56:22;94411.69;;;13.40;100.00
59009;BME280;44794;42.652;23.318;2023-05-25T00:58:53;94399.91;;;13.36;100.00
59009;BME280;44794;42.652;23.318;2023-05-25T01:01:24;94399.03;;;13.26;100.00
59009;BME280;44794;42.652;23.318;2023-05-25T01:03:52;94404.78;;;13.20;100.00
59009;BME280;44794;42.652;23.318;2023-05-25T01:06:21;94399.72;;;13.19;100.00
59009;BME280;44794;42.652;23.318;2023-05-25T01:08:56;94409.31;;;13.18;100.00
59009;BME280;44794;42.652;23.318;2023-05-25T01:11:32;94407.53;;;13.19;100.00
59009;BME280;44794;42.652;23.318;2023-05-25T01:13:59;94410.25;;;13.17;100.00
59009;BME280;44794;42.652;23.318;2023-05-25T01:16:24;94410.50;;;13.05;100.00
59009;BME280;44794;42.652;23.318;2023-05-25T01:18:51;94408.31;;;13.10;100.00
59009;BME280;44794;42.652;23.318;2023-05-25T01:21:28;94401.75;;;13.15;100.00
59009;BME280;44794;42.652;23.318;2023-05-25T01:24:01;94394.91;;;13.14;100.00
59009;BME280;44794;42.652;23.318;2023-05-25T01:26:32;94393.38;;;13.12;100.00
59009;BME280;44794;42.652;23.318;2023-05-25T01:29:00;94394.72;;;13.06;100.00
59009;BME280;44794;42.652;23.318;2023-05-25T01:31:27;94393.78;;;13.07;100.00
59009;BME280;44794;42.652;23.318;2023-05-25T01:33:54;94392.81;;;13.08;100.00
59009;BME280;44794;42.652;23.318;2023-05-25T01:36:20;94389.66;;;13.05;100.00
59009;BME280;44794;42.652;23.318;2023-05-25T01:38:46;94379.06;;;12.97;100.00
59009;BME280;44794;42.652;23.318;2023-05-25T01:41:11;94372.88;;;12.88;100.00
59009;BME280;44794;42.652;23.318;2023-05-25T01:43:37;94363.47;;;12.86;100.00
59009;BME280;44794;42.652;23.318;2023-05-25T01:48:54;94358.00;;;12.79;100.00
59009;BME280;44794;42.652;23.318;2023-05-25T01:51:38;94354.69;;;12.77;100.00
59009;BME280;44794;42.652;23.318;2023-05-25T01:54:17;94353.13;;;12.66;100.00
59009;BME280;44794;42.652;23.318;2023-05-25T01:56:45;94353.56;;;12.71;100.00
59009;BME280;44794;42.652;23.318;2023-05-25T01:59:19;94356.72;;;12.74;100.00
59009;BME280;44794;42.652;23.318;2023-05-25T02:01:47;94359.31;;;12.74;100.00
59009;BME280;44794;42.652;23.318;2023-05-25T02:04:14;94367.81;;;12.67;100.00
59009;BME280;44794;42.652;23.318;2023-05-25T02:06:41;94377.66;;;12.63;100.00
59009;BME280;44794;42.652;23.318;2023-05-25T02:09:06;94377.34;;;12.57;100.00
59009;BME280;44794;42.652;23.318;2023-05-25T02:11:32;94384.47;;;12.55;100.00
59009;BME280;44794;42.652;23.318;2023-05-25T02:13:57;94390.09;;;12.50;100.00
59009;BME280;44794;42.652;23.318;2023-05-25T02:16:23;94381.72;;;12.47;100.00
59009;BME280;44794;42.652;23.318;2023-05-25T02:18:48;94385.50;;;12.43;100.00
59009;BME280;44794;42.652;23.318;2023-05-25T02:21:15;94379.78;;;12.49;100.00
59009;BME280;44794;42.652;23.318;2023-05-25T02:23:42;94380.63;;;12.49;100.00
59009;BME280;44794;42.652;23.318;2023-05-25T02:26:07;94384.59;;;12.53;100.00
59009;BME280;44794;42.652;23.318;2023-05-25T02:28:32;94389.09;;;12.51;100.00
59009;BME280;44794;42.652;23.318;2023-05-25T02:30:58;94396.09;;;12.51;100.00
59009;BME280;44794;42.652;23.318;2023-05-25T02:33:23;94403.34;;;12.47;100.00
59009;BME280;44794;42.652;23.318;2023-05-25T02:35:49;94409.38;;;12.48;100.00
59009;BME280;44794;42.652;23.318;2023-05-25T02:38:15;94397.34;;;12.47;100.00
59009;BME280;44794;42.652;23.318;2023-05-25T02:40:40;94404.69;;;12.42;100.00
59009;BME280;44794;42.652;23.318;2023-05-25T02:43:06;94401.97;;;12.43;100.00
59009;BME280;44794;42.652;23.318;2023-05-25T02:45:31;94419.34;;;12.43;100.00
59009;BME280;44794;42.652;23.318;2023-05-25T02:47:57;94421.16;;;12.42;100.00
59009;BME280;44794;42.652;23.318;2023-05-25T02:50:22;94423.44;;;12.36;100.00
59009;BME280;44794;42.652;23.318;2023-05-25T02:52:47;94423.75;;;12.42;100.00
59009;BME280;44794;42.652;23.318;2023-05-25T02:55:13;94421.97;;;12.43;100.00
59009;BME280;44794;42.652;23.318;2023-05-25T02:57:38;94431.44;;;12.44;100.00
59009;BME280;44794;42.652;23.318;2023-05-25T03:00:04;94431.28;;;12.45;100.00
59009;BME280;44794;42.652;23.318;2023-05-25T03:02:35;94430.47;;;12.45;100.00
59009;BME280;44794;42.652;23.318;2023-05-25T03:05:01;94426.94;;;12.46;100.00
59009;BME280;44794;42.652;23.318;2023-05-25T03:07:26;94429.25;;;12.49;100.00
59009;BME280;44794;42.652;23.318;2023-05-25T03:09:52;94437.91;;;12.49;100.00
59009;BME280;44794;42.652;23.318;2023-05-25T03:12:17;94429.72;;;12.54;100.00
59009;BME280;44794;42.652;23.318;2023-05-25T03:14:43;94437.84;;;12.60;100.00
59009;BME280;44794;42.652;23.318;2023-05-25T03:17:08;94428.59;;;12.76;100.00
59009;BME280;44794;42.652;23.318;2023-05-25T03:19:34;94432.28;;;12.94;100.00
59009;BME280;44794;42.652;23.318;2023-05-25T03:22:00;94437.69;;;13.02;100.00
59009;BME280;44794;42.652;23.318;2023-05-25T03:24:26;94442.22;;;13.10;100.00
59009;BME280;44794;42.652;23.318;2023-05-25T03:26:53;94446.75;;;13.17;100.00
59009;BME280;44794;42.652;23.318;2023-05-25T03:29:18;94457.50;;;13.24;100.00
59009;BME280;44794;42.652;23.318;2023-05-25T03:31:43;94462.31;;;13.28;100.00
59009;BME280;44794;42.652;23.318;2023-05-25T03:34:09;94464.81;;;13.39;100.00
59009;BME280;44794;42.652;23.318;2023-05-25T03:36:34;94462.78;;;13.52;100.00
59009;BME280;44794;42.652;23.318;2023-05-25T03:39:02;94472.19;;;13.64;100.00
59009;BME280;44794;42.652;23.318;2023-05-25T03:41:27;94471.91;;;13.76;100.00
59009;BME280;44794;42.652;23.318;2023-05-25T03:43:53;94481.31;;;13.88;100.00
59009;BME280;44794;42.652;23.318;2023-05-25T03:46:18;94488.59;;;14.04;100.00
59009;BME280;44794;42.652;23.318;2023-05-25T03:48:44;94490.56;;;14.21;100.00
59009;BME280;44794;42.652;23.318;2023-05-25T03:51:09;94483.69;;;14.38;100.00
59009;BME280;44794;42.652;23.318;2023-05-25T03:53:34;94494.81;;;14.59;100.00
59009;BME280;44794;42.652;23.318;2023-05-25T03:56:00;94505.13;;;14.80;100.00
59009;BME280;44794;42.652;23.318;2023-05-25T03:58:25;94502.16;;;15.01;100.00
59009;BME280;44794;42.652;23.318;2023-05-25T04:00:51;94507.94;;;15.24;100.00
59009;BME280;44794;42.652;23.318;2023-05-25T04:03:17;94506.88;;;15.44;100.00
59009;BME280;44794;42.652;23.318;2023-05-25T04:05:43;94512.72;;;15.65;100.00
59009;BME280;44794;42.652;23.318;2023-05-25T04:08:13;94526.66;;;15.82;100.00
59009;BME280;44794;42.652;23.318;2023-05-25T04:10:43;94534.13;;;16.04;100.00
59009;BME280;44794;42.652;23.318;2023-05-25T04:13:08;94544.97;;;16.19;100.00
59009;BME280;44794;42.652;23.318;2023-05-25T04:15:33;94556.16;;;16.38;98.26
59009;BME280;44794;42.652;23.318;2023-05-25T04:17:59;94555.06;;;16.58;97.00
59009;BME280;44794;42.652;23.318;2023-05-25T04:20:27;94567.50;;;16.73;94.53
59009;BME280;44794;42.652;23.318;2023-05-25T04:22:52;94571.38;;;16.87;93.25
59009;BME280;44794;42.652;23.318;2023-05-25T04:25:18;94572.66;;;17.00;91.97
59009;BME280;44794;42.652;23.318;2023-05-25T04:27:44;94573.84;;;17.06;91.89
59009;BME280;44794;42.652;23.318;2023-05-25T04:30:11;94577.66;;;17.29;91.65
59009;BME280;44794;42.652;23.318;2023-05-25T04:32:37;94587.97;;;17.47;90.41
59009;BME280;44794;42.652;23.318;2023-05-25T04:35:03;94593.06;;;17.74;89.27
59009;BME280;44794;42.652;23.318;2023-05-25T04:37:30;94601.78;;;18.08;88.24
59009;BME280;44794;42.652;23.318;2023-05-25T04:39:56;94607.47;;;18.29;86.54
59009;BME280;44794;42.652;23.318;2023-05-25T04:42:22;94612.69;;;18.62;83.90
59009;BME280;44794;42.652;23.318;2023-05-25T04:44:49;94616.53;;;18.83;81.65
59009;BME280;44794;42.652;23.318;2023-05-25T04:47:17;94616.63;;;19.15;80.90
59009;BME280;44794;42.652;23.318;2023-05-25T04:49:43;94614.81;;;19.40;78.92
59009;BME280;44794;42.652;23.318;2023-05-25T04:52:09;94620.22;;;19.62;77.64
59009;BME280;44794;42.652;23.318;2023-05-25T04:54:34;94617.19;;;20.13;75.33
59009;BME280;44794;42.652;23.318;2023-05-25T04:57:00;94616.09;;;20.45;72.65
59009;BME280;44794;42.652;23.318;2023-05-25T04:59:26;94615.09;;;21.07;71.65
59009;BME280;44794;42.652;23.318;2023-05-25T05:01:52;94612.50;;;22.17;65.24
59009;BME280;44794;42.652;23.318;2023-05-25T05:04:17;94621.59;;;24.33;54.68
59009;BME280;44794;42.652;23.318;2023-05-25T05:06:42;94635.53;;;26.27;47.54
59009;BME280;44794;42.652;23.318;2023-05-25T05:09:08;94636.31;;;27.29;43.65
59009;BME280;44794;42.652;23.318;2023-05-25T05:11:33;94635.22;;;26.86;43.88
59009;BME280;44794;42.652;23.318;2023-05-25T05:13:59;94634.81;;;27.02;41.97
59009;BME280;44794;42.652;23.318;2023-05-25T05:16:24;94631.19;;;26.64;42.42
59009;BME280;44794;42.652;23.318;2023-05-25T05:18:50;94640.03;;;27.65;40.74
59009;BME280;44794;42.652;23.318;2023-05-25T05:21:15;94648.81;;;29.30;37.03
59009;BME280;44794;42.652;23.318;2023-05-25T05:23:42;94647.66;;;30.02;35.30
59009;BME280;44794;42.652;23.318;2023-05-25T05:26:07;94644.41;;;30.64;34.06
59009;BME280;44794;42.652;23.318;2023-05-25T05:28:36;94647.63;;;30.89;33.12
59009;BME280;44794;42.652;23.318;2023-05-25T05:31:01;94650.50;;;29.89;34.71
59009;BME280;44794;42.652;23.318;2023-05-25T05:33:26;94647.66;;;29.08;35.97
59009;BME280;44794;42.652;23.318;2023-05-25T05:35:52;94652.47;;;29.53;34.99
59009;BME280;44794;42.652;23.318;2023-05-25T05:38:18;94644.56;;;29.87;35.24
59009;BME280;44794;42.652;23.318;2023-05-25T05:40:44;94657.25;;;29.63;35.38
59009;BME280;44794;42.652;23.318;2023-05-25T05:43:12;94644.00;;;28.42;37.67
59009;BME280;44794;42.652;23.318;2023-05-25T05:45:37;94648.97;;;28.08;38.73
59009;BME280;44794;42.652;23.318;2023-05-25T05:48:03;94652.50;;;27.78;38.68
59009;BME280;44794;42.652;23.318;2023-05-25T05:50:29;94645.59;;;28.19;38.72
59009;BME280;44794;42.652;23.318;2023-05-25T05:52:54;94654.63;;;28.24;38.06
59009;BME280;44794;42.652;23.318;2023-05-25T05:55:20;94657.16;;;28.19;38.81
59009;BME280;44794;42.652;23.318;2023-05-25T05:57:45;94660.13;;;29.32;36.64
59009;BME280;44794;42.652;23.318;2023-05-25T06:00:11;94666.69;;;29.65;36.49
59009;BME280;44794;42.652;23.318;2023-05-25T06:02:37;94660.66;;;28.87;37.96
59009;BME280;44794;42.652;23.318;2023-05-25T06:05:03;94658.31;;;29.62;36.52
59009;BME280;44794;42.652;23.318;2023-05-25T06:07:28;94663.50;;;31.02;34.52
59009;BME280;44794;42.652;23.318;2023-05-25T06:09:55;94668.31;;;31.50;33.46
59009;BME280;44794;42.652;23.318;2023-05-25T06:12:21;94670.03;;;32.68;31.66
59009;BME280;44794;42.652;23.318;2023-05-25T06:14:46;94670.50;;;34.52;29.05
59009;BME280;44794;42.652;23.318;2023-05-25T06:17:14;94667.53;;;34.01;29.44
59009;BME280;44794;42.652;23.318;2023-05-25T06:19:41;94668.56;;;33.52;29.53
59009;BME280;44794;42.652;23.318;2023-05-25T06:22:06;94673.22;;;34.26;29.02
59009;BME280;44794;42.652;23.318;2023-05-25T06:24:31;94671.91;;;32.67;30.15
59009;BME280;44794;42.652;23.318;2023-05-25T06:26:57;94666.59;;;31.44;32.63
59009;BME280;44794;42.652;23.318;2023-05-25T06:29:22;94666.34;;;33.06;30.46
59009;BME280;44794;42.652;23.318;2023-05-25T06:31:48;94670.19;;;33.96;28.69
59009;BME280;44794;42.652;23.318;2023-05-25T06:34:13;94668.50;;;32.93;30.02
59009;BME280;44794;42.652;23.318;2023-05-25T06:36:39;94669.16;;;34.23;28.62
59009;BME280;44794;42.652;23.318;2023-05-25T06:39:04;94680.50;;;34.25;28.45
59009;BME280;44794;42.652;23.318;2023-05-25T06:41:29;94670.59;;;34.93;27.64
59009;BME280;44794;42.652;23.318;2023-05-25T06:43:55;94671.22;;;32.77;30.27
59009;BME280;44794;42.652;23.318;2023-05-25T06:46:20;94665.19;;;31.53;31.99
59009;BME280;44794;42.652;23.318;2023-05-25T06:48:46;94674.91;;;31.82;31.05
59009;BME280;44794;42.652;23.318;2023-05-25T06:51:11;94660.16;;;29.90;33.87
59009;BME280;44794;42.652;23.318;2023-05-25T06:53:37;94661.31;;;29.54;35.28
59009;BME280;44794;42.652;23.318;2023-05-25T06:56:05;94660.53;;;30.23;34.62
59009;BME280;44794;42.652;23.318;2023-05-25T06:58:31;94665.25;;;28.80;36.62
59009;BME280;44794;42.652;23.318;2023-05-25T07:00:56;94663.63;;;28.54;37.46
59009;BME280;44794;42.652;23.318;2023-05-25T07:03:23;94657.97;;;29.04;37.40
59009;BME280;44794;42.652;23.318;2023-05-25T07:05:49;94661.28;;;30.53;34.68
59009;BME280;44794;42.652;23.318;2023-05-25T07:08:14;94665.31;;;32.14;32.39
59009;BME280;44794;42.652;23.318;2023-05-25T07:10:40;94659.88;;;29.51;36.71
59009;BME280;44794;42.652;23.318;2023-05-25T07:13:05;94652.75;;;30.45;35.96
59009;BME280;44794;42.652;23.318;2023-05-25T07:15:31;94654.34;;;31.60;34.03
59009;BME280;44794;42.652;23.318;2023-05-25T07:17:56;94644.50;;;29.29;37.90
59009;BME280;44794;42.652;23.318;2023-05-25T07:20:23;94645.47;;;30.11;36.46
59009;BME280;44794;42.652;23.318;2023-05-25T07:22:48;94632.97;;;28.75;38.69
59009;BME280;44794;42.652;23.318;2023-05-25T07:25:14;94639.38;;;27.76;40.61
59009;BME280;44794;42.652;23.318;2023-05-25T07:27:39;94641.91;;;27.65;41.35
59009;BME280;44794;42.652;23.318;2023-05-25T07:30:07;94643.47;;;29.48;38.76
59009;BME280;44794;42.652;23.318;2023-05-25T07:32:32;94647.84;;;29.24;38.22
59009;BME280;44794;42.652;23.318;2023-05-25T07:34:58;94644.41;;;28.21;39.73
59009;BME280;44794;42.652;23.318;2023-05-25T07:37:23;94649.63;;;29.30;39.18
59009;BME280;44794;42.652;23.318;2023-05-25T07:39:49;94658.66;;;31.49;35.43
59009;BME280;44794;42.652;23.318;2023-05-25T07:42:15;94657.44;;;30.60;36.36
59009;BME280;44794;42.652;23.318;2023-05-25T07:44:45;94660.13;;;29.32;37.72
59009;BME280;44794;42.652;23.318;2023-05-25T07:47:11;94651.59;;;27.90;41.18
59009;BME280;44794;42.652;23.318;2023-05-25T07:49:36;94650.19;;;26.87;42.91
59009;BME280;44794;42.652;23.318;2023-05-25T07:52:02;94641.97;;;24.87;46.85
59009;BME280;44794;42.652;23.318;2023-05-25T07:54:30;94656.47;;;24.91;46.16
59009;BME280;44794;42.652;23.318;2023-05-25T07:56:55;94642.44;;;23.04;50.47
59009;BME280;44794;42.652;23.318;2023-05-25T07:59:21;94637.97;;;22.18;54.21
59009;BME280;44794;42.652;23.318;2023-05-25T08:01:46;94635.91;;;21.32;58.65
59009;BME280;44794;42.652;23.318;2023-05-25T08:04:12;94645.94;;;20.84;61.61
59009;BME280;44794;42.652;23.318;2023-05-25T08:06:37;94643.13;;;20.47;65.84
59009;BME280;44794;42.652;23.318;2023-05-25T08:09:03;94647.31;;;20.64;67.11
59009;BME280;44794;42.652;23.318;2023-05-25T08:11:29;94649.13;;;20.80;65.84
59009;BME280;44794;42.652;23.318;2023-05-25T08:13:55;94652.91;;;20.77;65.68
59009;BME280;44794;42.652;23.318;2023-05-25T08:16:20;94656.38;;;20.70;65.92
59009;BME280;44794;42.652;23.318;2023-05-25T08:18:46;94665.81;;;20.56;66.41
59009;BME280;44794;42.652;23.318;2023-05-25T08:21:12;94677.75;;;20.44;67.30
59009;BME280;44794;42.652;23.318;2023-05-25T08:23:39;94684.09;;;19.88;75.18
59009;BME280;44794;42.652;23.318;2023-05-25T08:26:10;94680.16;;;19.60;79.07
59009;BME280;44794;42.652;23.318;2023-05-25T08:28:36;94685.72;;;19.25;81.76
59009;BME280;44794;42.652;23.318;2023-05-25T08:31:02;94687.78;;;18.90;83.58
59009;BME280;44794;42.652;23.318;2023-05-25T08:33:28;94692.75;;;18.60;85.71
59009;BME280;44794;42.652;23.318;2023-05-25T08:35:54;94676.06;;;18.10;87.55
59009;BME280;44794;42.652;23.318;2023-05-25T08:38:19;94699.72;;;18.10;89.49
59009;BME280;44794;42.652;23.318;2023-05-25T08:41:00;94681.41;;;17.75;89.34
59009;BME280;44794;42.652;23.318;2023-05-25T08:43:27;94687.22;;;17.61;90.89
59009;BME280;44794;42.652;23.318;2023-05-25T08:45:54;94691.38;;;17.29;95.66
59009;BME280;44794;42.652;23.318;2023-05-25T08:48:23;94695.03;;;17.36;97.38
59009;BME280;44794;42.652;23.318;2023-05-25T08:50:51;94679.22;;;17.28;98.76
59009;BME280;44794;42.652;23.318;2023-05-25T08:53:17;94679.53;;;17.16;100.00
59009;BME280;44794;42.652;23.318;2023-05-25T08:55:46;94673.69;;;17.22;100.00
59009;BME280;44794;42.652;23.318;2023-05-25T08:58:36;94668.16;;;17.25;100.00
59009;BME280;44794;42.652;23.318;2023-05-25T09:01:07;94669.22;;;17.32;100.00
59009;BME280;44794;42.652;23.318;2023-05-25T09:03:33;94672.31;;;17.27;100.00
59009;BME280;44794;42.652;23.318;2023-05-25T09:06:00;94675.94;;;17.17;100.00
59009;BME280;44794;42.652;23.318;2023-05-25T09:08:26;94675.44;;;17.13;100.00
59009;BME280;44794;42.652;23.318;2023-05-25T09:10:54;94686.00;;;17.04;100.00
59009;BME280;44794;42.652;23.318;2023-05-25T09:13:20;94687.81;;;17.03;100.00
59009;BME280;44794;42.652;23.318;2023-05-25T09:15:46;94686.44;;;16.99;100.00
59009;BME280;44794;42.652;23.318;2023-05-25T09:18:12;94682.53;;;16.86;100.00
59009;BME280;44794;42.652;23.318;2023-05-25T09:20:37;94688.34;;;16.80;100.00
59009;BME280;44794;42.652;23.318;2023-05-25T09:23:04;94687.28;;;16.73;100.00
59009;BME280;44794;42.652;23.318;2023-05-25T09:25:30;94676.53;;;16.76;100.00
59009;BME280;44794;42.652;23.318;2023-05-25T09:27:57;94660.88;;;16.84;100.00
59009;BME280;44794;42.652;23.318;2023-05-25T09:30:23;94652.03;;;16.85;100.00
59009;BME280;44794;42.652;23.318;2023-05-25T09:32:49;94648.44;;;17.03;100.00
59009;BME280;44794;42.652;23.318;2023-05-25T09:35:15;94646.09;;;17.18;100.00
59009;BME280;44794;42.652;23.318;2023-05-25T09:37:42;94637.63;;;17.41;100.00
59009;BME280;44794;42.652;23.318;2023-05-25T09:40:09;94650.53;;;17.52;100.00
59009;BME280;44794;42.652;23.318;2023-05-25T09:42:36;94656.97;;;17.57;100.00
59009;BME280;44794;42.652;23.318;2023-05-25T09:45:02;94646.28;;;17.76;100.00
59009;BME280;44794;42.652;23.318;2023-05-25T09:47:28;94639.19;;;18.02;100.00
59009;BME280;44794;42.652;23.318;2023-05-25T09:49:55;94639.97;;;18.20;100.00
59009;BME280;44794;42.652;23.318;2023-05-25T09:52:21;94649.59;;;18.37;100.00
59009;BME280;44794;42.652;23.318;2023-05-25T09:54:50;94642.09;;;18.50;100.00
59009;BME280;44794;42.652;23.318;2023-05-25T09:57:18;94649.38;;;18.64;100.00
59009;BME280;44794;42.652;23.318;2023-05-25T09:59:44;94648.44;;;18.88;100.00
59009;BME280;44794;42.652;23.318;2023-05-25T10:02:10;94652.47;;;19.16;98.67
59009;BME280;44794;42.652;23.318;2023-05-25T10:04:36;94671.09;;;19.39;93.24
59009;BME280;44794;42.652;23.318;2023-05-25T10:07:03;94682.13;;;19.66;89.35
59009;BME280;44794;42.652;23.318;2023-05-25T10:09:29;94685.28;;;20.01;86.62
59009;BME280;44794;42.652;23.318;2023-05-25T10:11:56;94690.38;;;19.95;79.38
59009;BME280;44794;42.652;23.318;2023-05-25T10:14:25;94690.19;;;20.12;79.35
59009;BME280;44794;42.652;23.318;2023-05-25T10:16:52;94686.41;;;20.15;81.57
59009;BME280;44794;42.652;23.318;2023-05-25T10:19:24;94683.78;;;20.69;81.16
59009;BME280;44794;42.652;23.318;2023-05-25T10:22:03;94687.38;;;21.14;76.23
59009;BME280;44794;42.652;23.318;2023-05-25T10:24:44;94677.94;;;21.42;74.81
59009;BME280;44794;42.652;23.318;2023-05-25T10:27:18;94679.84;;;21.78;75.30
59009;BME280;44794;42.652;23.318;2023-05-25T10:29:47;94673.00;;;21.69;74.11
59009;BME280;44794;42.652;23.318;2023-05-25T10:32:16;94674.41;;;21.80;71.08
59009;BME280;44794;42.652;23.318;2023-05-25T10:34:42;94671.88;;;22.00;73.31
59009;BME280;44794;42.652;23.318;2023-05-25T10:37:08;94671.81;;;21.72;69.80
59009;BME280;44794;42.652;23.318;2023-05-25T10:39:35;94657.50;;;21.36;73.23
59009;BME280;44794;42.652;23.318;2023-05-25T10:42:01;94655.09;;;21.49;74.26
59009;BME280;44794;42.652;23.318;2023-05-25T10:44:30;94651.13;;;21.75;72.99
59009;BME280;44794;42.652;23.318;2023-05-25T10:46:58;94648.56;;;21.82;71.40
59009;BME280;44794;42.652;23.318;2023-05-25T10:49:54;94643.72;;;21.71;69.42
59009;BME280;44794;42.652;23.318;2023-05-25T10:52:20;94630.66;;;21.92;69.93
59009;BME280;44794;42.652;23.318;2023-05-25T10:54:47;94633.53;;;21.37;70.40
59009;BME280;44794;42.652;23.318;2023-05-25T10:57:20;94631.63;;;21.54;71.33
59009;BME280;44794;42.652;23.318;2023-05-25T10:59:50;94626.63;;;21.14;72.31
59009;BME280;44794;42.652;23.318;2023-05-25T11:02:18;94627.28;;;21.38;72.66
59009;BME280;44794;42.652;23.318;2023-05-25T11:04:49;94620.94;;;21.70;72.49
59009;BME280;44794;42.652;23.318;2023-05-25T11:07:16;94619.94;;;21.85;69.64
59009;BME280;44794;42.652;23.318;2023-05-25T11:09:55;94614.78;;;21.55;69.41
59009;BME280;44794;42.652;23.318;2023-05-25T11:12:21;94630.19;;;21.21;69.16
59009;BME280;44794;42.652;23.318;2023-05-25T11:15:10;94624.53;;;20.79;68.88
59009;BME280;44794;42.652;23.318;2023-05-25T11:17:56;94628.59;;;21.12;69.14
59009;BME280;44794;42.652;23.318;2023-05-25T11:20:26;94629.63;;;21.56;66.44
59009;BME280;44794;42.652;23.318;2023-05-25T11:22:51;94633.88;;;21.65;64.98
59009;BME280;44794;42.652;23.318;2023-05-25T11:25:40;94638.13;;;21.43;63.24
59009;BME280;44794;42.652;23.318;2023-05-25T11:28:07;94629.03;;;21.46;64.77
59009;BME280;44794;42.652;23.318;2023-05-25T11:30:33;94639.25;;;21.71;64.55
59009;BME280;44794;42.652;23.318;2023-05-25T11:33:02;94632.75;;;21.96;64.47
59009;BME280;44794;42.652;23.318;2023-05-25T11:35:29;94642.81;;;21.78;61.64
59009;BME280;44794;42.652;23.318;2023-05-25T11:37:58;94638.91;;;21.52;64.07
59009;BME280;44794;42.652;23.318;2023-05-25T11:40:28;94636.44;;;21.28;64.32
59009;BME280;44794;42.652;23.318;2023-05-25T11:42:56;94638.63;;;20.94;66.72
59009;BME280;44794;42.652;23.318;2023-05-25T11:45:22;94632.19;;;21.19;65.30
59009;BME280;44794;42.652;23.318;2023-05-25T11:47:47;94634.97;;;21.25;64.78
59009;BME280;44794;42.652;23.318;2023-05-25T11:50:16;94640.97;;;20.89;63.70
59009;BME280;44794;42.652;23.318;2023-05-25T11:52:42;94640.72;;;21.07;64.13
59009;BME280;44794;42.652;23.318;2023-05-25T11:55:13;94644.97;;;21.60;63.50
59009;BME280;44794;42.652;23.318;2023-05-25T11:57:39;94640.28;;;21.85;61.70
59009;BME280;44794;42.652;23.318;2023-05-25T12:00:05;94642.00;;;21.78;63.81
59009;BME280;44794;42.652;23.318;2023-05-25T12:02:39;94628.19;;;21.45;64.43
59009;BME280;44794;42.652;23.318;2023-05-25T12:05:05;94630.78;;;21.53;63.40
59009;BME280;44794;42.652;23.318;2023-05-25T12:07:31;94622.94;;;21.23;65.23
59009;BME280;44794;42.652;23.318;2023-05-25T12:10:07;94616.56;;;20.87;66.78
59009;BME280;44794;42.652;23.318;2023-05-25T12:12:47;94623.13;;;20.91;68.42
59009;BME280;44794;42.652;23.318;2023-05-25T12:15:15;94620.94;;;20.64;69.05
59009;BME280;44794;42.652;23.318;2023-05-25T12:17:42;94622.22;;;20.38;71.56
59009;BME280;44794;42.652;23.318;2023-05-25T12:20:12;94613.53;;;20.22;72.34
59009;BME280;44794;42.652;23.318;2023-05-25T12:22:40;94616.63;;;20.33;72.88
59009;BME280;44794;42.652;23.318;2023-05-25T12:25:07;94598.56;;;20.52;72.06
59009;BME280;44794;42.652;23.318;2023-05-25T12:27:33;94589.63;;;20.61;71.82
59009;BME280;44794;42.652;23.318;2023-05-25T12:29:58;94590.16;;;20.87;69.23
59009;BME280;44794;42.652;23.318;2023-05-25T12:32:24;94590.59;;;20.99;68.27
59009;BME280;44794;42.652;23.318;2023-05-25T12:34:50;94597.56;;;21.14;62.58
59009;BME280;44794;42.652;23.318;2023-05-25T12:37:20;94605.91;;;21.03;56.64
59009;BME280;44794;42.652;23.318;2023-05-25T12:39:46;94607.09;;;21.23;53.22
59009;BME280;44794;42.652;23.318;2023-05-25T12:42:14;94594.75;;;21.38;57.06
59009;BME280;44794;42.652;23.318;2023-05-25T12:44:40;94587.34;;;21.56;56.79
59009;BME280;44794;42.652;23.318;2023-05-25T12:47:20;94589.09;;;21.41;56.49